sensor_id;sensor_type;location;lat;lon;timestamp;pressure;altitude;pressure_sealevel;temperature;humidity
38616;BME280;24370;51.986;4.666;2023-07-02T00:02:08;100780.91;;;27.51;37.48
38616;BME280;24370;51.986;4.666;2023-07-02T00:04:33;100780.03;;;27.50;37.50
38616;BME280;24370;51.986;4.666;2023-07-02T00:07:00;100788.38;;;26.10;39.06
38616;BME280;24370;51.986;4.666;2023-07-02T00:09:25;100789.41;;;25.71;39.54
38616;BME280;24370;51.986;4.666;2023-07-02T00:11:50;100785.59;;;25.87;39.16
38616;BME280;24370;51.986;4.666;2023-07-02T00:14:16;100782.03;;;26.57;37.61
38616;BME280;24370;51.986;4.666;2023-07-02T00:16:45;100787.34;;;26.35;37.28
38616;BME280;24370;51.986;4.666;2023-07-02T00:19:13;100781.47;;;26.18;37.38
38616;BME280;24370;51.986;4.666;2023-07-02T00:21:39;100783.19;;;26.19;37.39
38616;BME280;24370;51.986;4.666;2023-07-02T00:24:06;100789.38;;;26.78;36.79
38616;BME280;24370;51.986;4.666;2023-07-02T00:26:31;100786.63;;;26.44;36.63
38616;BME280;24370;51.986;4.666;2023-07-02T00:28:57;100779.34;;;27.14;35.95
38616;BME280;24370;51.986;4.666;2023-07-02T00:31:23;100786.88;;;27.43;35.30
38616;BME280;24370;51.986;4.666;2023-07-02T00:33:49;100788.59;;;27.21;35.29
38616;BME280;24370;51.986;4.666;2023-07-02T00:36:14;100786.28;;;27.28;36.10
38616;BME280;24370;51.986;4.666;2023-07-02T00:38:47;100794.19;;;27.52;35.13
38616;BME280;24370;51.986;4.666;2023-07-02T00:41:13;100786.88;;;27.32;35.74
38616;BME280;24370;51.986;4.666;2023-07-02T00:43:39;100783.97;;;27.23;36.47
38616;BME280;24370;51.986;4.666;2023-07-02T00:46:10;100798.28;;;27.01;37.27
38616;BME280;24370;51.986;4.666;2023-07-02T00:48:38;100792.50;;;26.61;38.13
38616;BME280;24370;51.986;4.666;2023-07-02T00:51:05;100798.72;;;25.54;40.81
38616;BME280;24370;51.986;4.666;2023-07-02T00:53:31;100813.28;;;25.50;41.53
38616;BME280;24370;51.986;4.666;2023-07-02T00:55:57;100809.97;;;24.84;42.96
38616;BME280;24370;51.986;4.666;2023-07-02T00:58:23;100810.53;;;25.63;41.03
38616;BME280;24370;51.986;4.666;2023-07-02T01:00:48;100808.88;;;25.12;40.51
38616;BME280;24370;51.986;4.666;2023-07-02T01:03:14;100807.50;;;24.81;40.09
38616;BME280;24370;51.986;4.666;2023-07-02T01:05:39;100804.28;;;25.14;38.50
38616;BME280;24370;51.986;4.666;2023-07-02T01:08:07;100808.69;;;24.89;38.49
38616;BME280;24370;51.986;4.666;2023-07-02T01:10:33;100815.00;;;25.51;37.64
38616;BME280;24370;51.986;4.666;2023-07-02T01:13:06;100813.56;;;25.21;37.79
38616;BME280;24370;51.986;4.666;2023-07-02T01:15:35;100818.03;;;25.21;38.02
38616;BME280;24370;51.986;4.666;2023-07-02T01:18:02;100814.09;;;26.12;36.32
38616;BME280;24370;51.986;4.666;2023-07-02T01:20:29;100813.97;;;25.28;37.28
38616;BME280;24370;51.986;4.666;2023-07-02T01:22:56;100821.53;;;24.84;36.74
38616;BME280;24370;51.986;4.666;2023-07-02T01:25:22;100807.81;;;24.89;36.18
38616;BME280;24370;51.986;4.666;2023-07-02T01:27:50;100814.38;;;25.48;35.36
38616;BME280;24370;51.986;4.666;2023-07-02T01:30:15;100820.75;;;25.82;34.33
38616;BME280;24370;51.986;4.666;2023-07-02T01:32:41;100820.50;;;25.11;35.59
38616;BME280;24370;51.986;4.666;2023-07-02T01:35:08;100813.81;;;26.04;34.24
38616;BME280;24370;51.986;4.666;2023-07-02T01:37:33;100817.84;;;25.11;34.89
38616;BME280;24370;51.986;4.666;2023-07-02T01:40:06;100819.31;;;25.41;35.08
38616;BME280;24370;51.986;4.666;2023-07-02T01:42:32;100815.47;;;25.19;34.45
38616;BME280;24370;51.986;4.666;2023-07-02T01:44:58;100809.03;;;25.72;34.39
38616;BME280;24370;51.986;4.666;2023-07-02T01:47:23;100807.75;;;25.40;34.63
38616;BME280;24370;51.986;4.666;2023-07-02T01:49:50;100813.97;;;25.15;35.14
38616;BME280;24370;51.986;4.666;2023-07-02T01:52:16;100816.97;;;25.23;34.92
38616;BME280;24370;51.986;4.666;2023-07-02T01:54:42;100818.91;;;24.31;35.83
38616;BME280;24370;51.986;4.666;2023-07-02T01:57:08;100821.31;;;24.75;35.19
38616;BME280;24370;51.986;4.666;2023-07-02T01:59:33;100816.84;;;24.62;36.07
38616;BME280;24370;51.986;4.666;2023-07-02T02:01:59;100813.28;;;25.50;33.79
38616;BME280;24370;51.986;4.666;2023-07-02T02:04:25;100814.19;;;25.86;33.62
38616;BME280;24370;51.986;4.666;2023-07-02T02:06:50;100825.16;;;24.83;34.71
38616;BME280;24370;51.986;4.666;2023-07-02T02:09:17;100827.03;;;25.07;34.89
38616;BME280;24370;51.986;4.666;2023-07-02T02:11:48;100825.78;;;24.48;35.99
38616;BME280;24370;51.986;4.666;2023-07-02T02:14:15;100822.78;;;24.92;34.99
38616;BME280;24370;51.986;4.666;2023-07-02T02:16:40;100826.66;;;24.62;35.20
38616;BME280;24370;51.986;4.666;2023-07-02T02:19:10;100832.31;;;24.96;35.09
38616;BME280;24370;51.986;4.666;2023-07-02T02:21:35;100831.13;;;24.48;35.48
38616;BME280;24370;51.986;4.666;2023-07-02T02:24:01;100833.59;;;23.57;37.42
38616;BME280;24370;51.986;4.666;2023-07-02T02:26:26;100836.78;;;24.03;36.22
38616;BME280;24370;51.986;4.666;2023-07-02T02:28:52;100839.97;;;23.96;36.75
38616;BME280;24370;51.986;4.666;2023-07-02T02:31:17;100835.81;;;24.96;35.48
38616;BME280;24370;51.986;4.666;2023-07-02T02:33:43;100849.50;;;23.44;37.96
38616;BME280;24370;51.986;4.666;2023-07-02T02:36:09;100851.38;;;24.25;36.68
38616;BME280;24370;51.986;4.666;2023-07-02T02:38:34;100845.25;;;23.41;37.69
38616;BME280;24370;51.986;4.666;2023-07-02T02:41:02;100852.06;;;24.54;36.30
38616;BME280;24370;51.986;4.666;2023-07-02T02:43:27;100856.41;;;24.30;36.18
38616;BME280;24370;51.986;4.666;2023-07-02T02:45:53;100857.63;;;24.51;36.19
38616;BME280;24370;51.986;4.666;2023-07-02T02:48:18;100863.88;;;24.65;36.83
38616;BME280;24370;51.986;4.666;2023-07-02T02:50:45;100870.50;;;24.98;35.20
38616;BME280;24370;51.986;4.666;2023-07-02T02:53:10;100874.50;;;24.52;36.40
38616;BME280;24370;51.986;4.666;2023-07-02T02:55:36;100865.06;;;25.49;35.64
38616;BME280;24370;51.986;4.666;2023-07-02T02:58:02;100865.34;;;24.95;35.48
38616;BME280;24370;51.986;4.666;2023-07-02T03:00:27;100862.91;;;24.92;35.28
38616;BME280;24370;51.986;4.666;2023-07-02T03:02:53;100867.06;;;24.96;35.87
38616;BME280;24370;51.986;4.666;2023-07-02T03:05:18;100875.53;;;24.36;36.60
38616;BME280;24370;51.986;4.666;2023-07-02T03:07:43;100872.13;;;24.47;36.30
38616;BME280;24370;51.986;4.666;2023-07-02T03:10:09;100871.88;;;24.25;37.14
38616;BME280;24370;51.986;4.666;2023-07-02T03:12:34;100866.25;;;24.02;37.83
38616;BME280;24370;51.986;4.666;2023-07-02T03:15:00;100869.09;;;23.15;39.04
38616;BME280;24370;51.986;4.666;2023-07-02T03:17:26;100861.00;;;23.59;38.13
38616;BME280;24370;51.986;4.666;2023-07-02T03:19:51;100861.59;;;23.64;37.95
38616;BME280;24370;51.986;4.666;2023-07-02T03:22:16;100857.97;;;23.65;37.95
38616;BME280;24370;51.986;4.666;2023-07-02T03:24:42;100856.75;;;22.98;39.85
38616;BME280;24370;51.986;4.666;2023-07-02T03:27:07;100858.34;;;23.59;38.46
38616;BME280;24370;51.986;4.666;2023-07-02T03:29:36;100851.06;;;23.90;37.98
38616;BME280;24370;51.986;4.666;2023-07-02T03:32:03;100870.94;;;23.57;38.43
38616;BME280;24370;51.986;4.666;2023-07-02T03:34:29;100865.53;;;23.85;37.94
38616;BME280;24370;51.986;4.666;2023-07-02T03:36:54;100865.09;;;24.59;36.87
38616;BME280;24370;51.986;4.666;2023-07-02T03:39:19;100868.47;;;23.53;38.18
38616;BME280;24370;51.986;4.666;2023-07-02T03:41:45;100877.06;;;23.44;38.98
38616;BME280;24370;51.986;4.666;2023-07-02T03:44:10;100882.78;;;24.34;36.96
38616;BME280;24370;51.986;4.666;2023-07-02T03:46:36;100881.97;;;22.93;39.39
38616;BME280;24370;51.986;4.666;2023-07-02T03:49:04;100880.56;;;24.41;37.12
38616;BME280;24370;51.986;4.666;2023-07-02T03:51:30;100877.69;;;24.04;37.72
38616;BME280;24370;51.986;4.666;2023-07-02T03:53:58;100885.16;;;23.99;37.67
38616;BME280;24370;51.986;4.666;2023-07-02T03:56:24;100889.72;;;23.97;37.40
38616;BME280;24370;51.986;4.666;2023-07-02T03:58:49;100893.63;;;23.35;38.85
38616;BME280;24370;51.986;4.666;2023-07-02T04:01:15;100893.44;;;23.38;38.72
38616;BME280;24370;51.986;4.666;2023-07-02T04:03:47;100894.00;;;24.27;37.63
38616;BME280;24370;51.986;4.666;2023-07-02T04:06:13;100886.38;;;23.66;38.01
38616;BME280;24370;51.986;4.666;2023-07-02T04:08:38;100895.00;;;23.84;37.67
38616;BME280;24370;51.986;4.666;2023-07-02T04:11:04;100895.63;;;24.29;36.71
38616;BME280;24370;51.986;4.666;2023-07-02T04:13:29;100899.91;;;23.48;38.65
38616;BME280;24370;51.986;4.666;2023-07-02T04:15:54;100903.69;;;23.73;37.83
38616;BME280;24370;51.986;4.666;2023-07-02T04:18:20;100903.75;;;23.15;38.54
38616;BME280;24370;51.986;4.666;2023-07-02T04:20:45;100906.91;;;23.78;38.08
38616;BME280;24370;51.986;4.666;2023-07-02T04:23:11;100908.56;;;23.52;38.40
38616;BME280;24370;51.986;4.666;2023-07-02T04:25:36;100911.91;;;23.70;37.87
38616;BME280;24370;51.986;4.666;2023-07-02T04:28:01;100908.09;;;24.01;37.15
38616;BME280;24370;51.986;4.666;2023-07-02T04:30:27;100907.59;;;24.49;36.82
38616;BME280;24370;51.986;4.666;2023-07-02T04:32:52;100904.94;;;23.67;37.63
38616;BME280;24370;51.986;4.666;2023-07-02T04:35:18;100916.03;;;24.03;37.64
38616;BME280;24370;51.986;4.666;2023-07-02T04:37:44;100914.94;;;22.92;39.55
38616;BME280;24370;51.986;4.666;2023-07-02T04:40:09;100919.22;;;24.63;36.49
38616;BME280;24370;51.986;4.666;2023-07-02T04:42:39;100926.28;;;24.77;36.09
38616;BME280;24370;51.986;4.666;2023-07-02T04:45:05;100923.63;;;24.49;36.32
38616;BME280;24370;51.986;4.666;2023-07-02T04:47:31;100926.09;;;24.93;35.52
38616;BME280;24370;51.986;4.666;2023-07-02T04:49:57;100924.81;;;24.85;35.12
38616;BME280;24370;51.986;4.666;2023-07-02T04:52:23;100931.13;;;25.86;33.75
38616;BME280;24370;51.986;4.666;2023-07-02T04:54:48;100929.19;;;25.88;34.09
38616;BME280;24370;51.986;4.666;2023-07-02T04:57:13;100929.47;;;25.72;34.75
38616;BME280;24370;51.986;4.666;2023-07-02T04:59:41;100920.97;;;26.15;33.34
38616;BME280;24370;51.986;4.666;2023-07-02T05:02:07;100921.56;;;25.95;33.48
38616;BME280;24370;51.986;4.666;2023-07-02T05:04:32;100922.19;;;26.71;32.87
38616;BME280;24370;51.986;4.666;2023-07-02T05:06:59;100925.84;;;26.70;32.29
38616;BME280;24370;51.986;4.666;2023-07-02T05:09:24;100925.94;;;27.38;32.02
38616;BME280;24370;51.986;4.666;2023-07-02T05:11:49;100934.19;;;27.80;31.11
38616;BME280;24370;51.986;4.666;2023-07-02T05:14:15;100937.53;;;27.38;31.89
38616;BME280;24370;51.986;4.666;2023-07-02T05:16:40;100931.31;;;27.38;32.16
38616;BME280;24370;51.986;4.666;2023-07-02T05:19:06;100944.16;;;25.28;34.89
38616;BME280;24370;51.986;4.666;2023-07-02T05:21:31;100940.47;;;26.17;33.79
38616;BME280;24370;51.986;4.666;2023-07-02T05:23:56;100936.53;;;26.10;34.47
38616;BME280;24370;51.986;4.666;2023-07-02T05:26:22;100945.31;;;25.99;34.23
38616;BME280;24370;51.986;4.666;2023-07-02T05:28:47;100950.69;;;25.49;35.46
38616;BME280;24370;51.986;4.666;2023-07-02T05:31:13;100955.06;;;26.13;34.68
38616;BME280;24370;51.986;4.666;2023-07-02T05:33:38;100951.00;;;25.95;35.32
38616;BME280;24370;51.986;4.666;2023-07-02T05:36:04;100966.47;;;23.79;37.95
38616;BME280;24370;51.986;4.666;2023-07-02T05:38:29;100959.28;;;24.35;37.39
38616;BME280;24370;51.986;4.666;2023-07-02T05:40:55;100962.91;;;25.40;35.63
38616;BME280;24370;51.986;4.666;2023-07-02T05:43:20;100975.75;;;25.22;36.75
38616;BME280;24370;51.986;4.666;2023-07-02T05:45:45;100970.16;;;25.64;35.48
38616;BME280;24370;51.986;4.666;2023-07-02T05:48:11;100973.69;;;25.13;36.67
38616;BME280;24370;51.986;4.666;2023-07-02T05:50:37;100977.22;;;25.27;36.62
38616;BME280;24370;51.986;4.666;2023-07-02T05:53:02;100973.66;;;24.87;36.98
38616;BME280;24370;51.986;4.666;2023-07-02T05:55:27;100989.25;;;25.34;36.20
38616;BME280;24370;51.986;4.666;2023-07-02T05:57:53;100985.06;;;24.64;37.06
38616;BME280;24370;51.986;4.666;2023-07-02T06:00:18;100994.94;;;24.76;37.78
38616;BME280;24370;51.986;4.666;2023-07-02T06:02:46;100990.59;;;24.61;37.60
38616;BME280;24370;51.986;4.666;2023-07-02T06:05:12;100990.91;;;25.22;36.69
38616;BME280;24370;51.986;4.666;2023-07-02T06:07:37;100992.59;;;24.97;36.77
38616;BME280;24370;51.986;4.666;2023-07-02T06:10:03;101001.31;;;26.15;35.57
38616;BME280;24370;51.986;4.666;2023-07-02T06:12:28;100996.75;;;25.91;34.41
38616;BME280;24370;51.986;4.666;2023-07-02T06:14:53;101009.72;;;26.11;34.84
38616;BME280;24370;51.986;4.666;2023-07-02T06:17:19;101003.56;;;25.59;35.19
38616;BME280;24370;51.986;4.666;2023-07-02T06:19:45;100991.56;;;26.87;33.47
38616;BME280;24370;51.986;4.666;2023-07-02T06:22:12;100999.47;;;26.88;33.30
38616;BME280;24370;51.986;4.666;2023-07-02T06:24:37;100996.69;;;27.71;31.70
38616;BME280;24370;51.986;4.666;2023-07-02T06:27:03;100996.31;;;28.42;31.18
38616;BME280;24370;51.986;4.666;2023-07-02T06:29:28;100998.75;;;27.79;31.29
38616;BME280;24370;51.986;4.666;2023-07-02T06:31:54;101005.56;;;27.26;32.14
38616;BME280;24370;51.986;4.666;2023-07-02T06:34:19;101008.63;;;27.33;31.38
38616;BME280;24370;51.986;4.666;2023-07-02T06:36:45;101006.94;;;27.77;30.95
38616;BME280;24370;51.986;4.666;2023-07-02T06:39:10;101006.81;;;28.45;30.09
38616;BME280;24370;51.986;4.666;2023-07-02T06:41:36;101007.03;;;28.53;29.65
38616;BME280;24370;51.986;4.666;2023-07-02T06:44:02;101010.09;;;28.05;29.91
38616;BME280;24370;51.986;4.666;2023-07-02T06:46:28;101009.41;;;29.21;29.07
38616;BME280;24370;51.986;4.666;2023-07-02T06:48:54;101005.69;;;31.23;26.26
38616;BME280;24370;51.986;4.666;2023-07-02T06:51:20;101015.88;;;28.76;28.36
38616;BME280;24370;51.986;4.666;2023-07-02T06:53:46;101019.00;;;29.14;26.64
38616;BME280;24370;51.986;4.666;2023-07-02T06:56:12;101033.78;;;27.77;28.31
38616;BME280;24370;51.986;4.666;2023-07-02T06:58:39;101021.00;;;29.22;27.16
38616;BME280;24370;51.986;4.666;2023-07-02T07:01:05;101030.75;;;29.34;27.33
38616;BME280;24370;51.986;4.666;2023-07-02T07:03:30;101018.41;;;30.83;24.62
38616;BME280;24370;51.986;4.666;2023-07-02T07:05:56;101031.50;;;29.77;25.85
38616;BME280;24370;51.986;4.666;2023-07-02T07:08:21;101044.72;;;30.31;25.06
38616;BME280;24370;51.986;4.666;2023-07-02T07:10:50;101049.34;;;30.69;25.30
38616;BME280;24370;51.986;4.666;2023-07-02T07:13:15;101043.69;;;28.66;27.15
38616;BME280;24370;51.986;4.666;2023-07-02T07:15:41;101047.44;;;30.31;25.85
38616;BME280;24370;51.986;4.666;2023-07-02T07:18:08;101049.19;;;31.77;25.07
38616;BME280;24370;51.986;4.666;2023-07-02T07:20:33;101060.34;;;30.17;25.88
38616;BME280;24370;51.986;4.666;2023-07-02T07:22:59;101054.41;;;31.41;25.10
38616;BME280;24370;51.986;4.666;2023-07-02T07:25:24;101068.34;;;31.26;24.63
38616;BME280;24370;51.986;4.666;2023-07-02T07:27:51;101056.72;;;29.24;26.31
38616;BME280;24370;51.986;4.666;2023-07-02T07:30:16;101075.13;;;30.33;25.61
38616;BME280;24370;51.986;4.666;2023-07-02T07:32:51;101069.66;;;28.76;26.74
38616;BME280;24370;51.986;4.666;2023-07-02T07:35:17;101083.63;;;29.66;26.52
38616;BME280;24370;51.986;4.666;2023-07-02T07:37:43;101073.50;;;30.71;25.71
38616;BME280;24370;51.986;4.666;2023-07-02T07:40:08;101072.88;;;29.24;25.13
38616;BME280;24370;51.986;4.666;2023-07-02T07:42:34;101076.97;;;28.42;27.05
38616;BME280;24370;51.986;4.666;2023-07-02T07:44:59;101083.25;;;30.02;24.73
38616;BME280;24370;51.986;4.666;2023-07-02T07:47:25;101077.19;;;30.79;24.04
38616;BME280;24370;51.986;4.666;2023-07-02T07:49:50;101081.16;;;30.15;24.72
38616;BME280;24370;51.986;4.666;2023-07-02T07:52:16;101082.09;;;29.94;25.40
38616;BME280;24370;51.986;4.666;2023-07-02T07:54:41;101090.97;;;30.16;25.43
38616;BME280;24370;51.986;4.666;2023-07-02T07:57:06;101081.09;;;29.22;26.27
38616;BME280;24370;51.986;4.666;2023-07-02T07:59:32;101080.97;;;29.45;26.12
38616;BME280;24370;51.986;4.666;2023-07-02T08:01:57;101080.53;;;30.02;26.00
38616;BME280;24370;51.986;4.666;2023-07-02T08:04:23;101077.72;;;30.63;24.72
38616;BME280;24370;51.986;4.666;2023-07-02T08:06:48;101090.25;;;31.23;23.29
38616;BME280;24370;51.986;4.666;2023-07-02T08:09:14;101083.44;;;31.19;23.48
38616;BME280;24370;51.986;4.666;2023-07-02T08:11:39;101085.69;;;32.64;22.54
38616;BME280;24370;51.986;4.666;2023-07-02T08:14:04;101089.88;;;30.38;25.30
38616;BME280;24370;51.986;4.666;2023-07-02T08:16:30;101084.13;;;31.21;22.97
38616;BME280;24370;51.986;4.666;2023-07-02T08:18:55;101088.19;;;31.55;22.87
38616;BME280;24370;51.986;4.666;2023-07-02T08:21:20;101087.06;;;31.67;22.29
38616;BME280;24370;51.986;4.666;2023-07-02T08:23:46;101097.88;;;30.59;23.22
38616;BME280;24370;51.986;4.666;2023-07-02T08:26:11;101090.00;;;31.07;23.75
38616;BME280;24370;51.986;4.666;2023-07-02T08:28:37;101094.63;;;30.85;23.67
38616;BME280;24370;51.986;4.666;2023-07-02T08:31:06;101096.97;;;29.68;24.96
38616;BME280;24370;51.986;4.666;2023-07-02T08:33:31;101100.19;;;30.23;24.96
38616;BME280;24370;51.986;4.666;2023-07-02T08:35:57;101102.41;;;28.26;25.52
38616;BME280;24370;51.986;4.666;2023-07-02T08:38:23;101100.72;;;31.66;22.20
38616;BME280;24370;51.986;4.666;2023-07-02T08:40:51;101112.00;;;29.70;23.88
38616;BME280;24370;51.986;4.666;2023-07-02T08:43:17;101100.31;;;30.12;23.20
38616;BME280;24370;51.986;4.666;2023-07-02T08:45:43;101116.56;;;29.49;23.70
38616;BME280;24370;51.986;4.666;2023-07-02T08:48:10;101110.94;;;27.86;25.96
38616;BME280;24370;51.986;4.666;2023-07-02T08:50:36;101109.47;;;28.39;25.25
38616;BME280;24370;51.986;4.666;2023-07-02T08:53:02;101107.75;;;29.47;23.72
38616;BME280;24370;51.986;4.666;2023-07-02T08:55:27;101113.38;;;30.77;23.27
38616;BME280;24370;51.986;4.666;2023-07-02T08:57:56;101115.09;;;30.98;22.74
38616;BME280;24370;51.986;4.666;2023-07-02T09:00:28;101111.25;;;30.90;22.94
38616;BME280;24370;51.986;4.666;2023-07-02T09:02:56;101108.28;;;30.84;23.25
38616;BME280;24370;51.986;4.666;2023-07-02T09:05:21;101105.72;;;31.21;22.79
38616;BME280;24370;51.986;4.666;2023-07-02T09:07:48;101112.81;;;31.32;22.86
38616;BME280;24370;51.986;4.666;2023-07-02T09:10:27;101118.34;;;30.72;23.44
38616;BME280;24370;51.986;4.666;2023-07-02T09:13:03;101114.13;;;31.18;23.12
38616;BME280;24370;51.986;4.666;2023-07-02T09:15:35;101120.53;;;29.97;23.38
38616;BME280;24370;51.986;4.666;2023-07-02T09:18:00;101112.81;;;31.99;22.91
38616;BME280;24370;51.986;4.666;2023-07-02T09:20:32;101107.81;;;33.14;20.70
38616;BME280;24370;51.986;4.666;2023-07-02T09:22:58;101114.31;;;32.39;22.24
38616;BME280;24370;51.986;4.666;2023-07-02T09:25:34;101121.63;;;33.47;21.30
38616;BME280;24370;51.986;4.666;2023-07-02T09:27:59;101124.66;;;33.08;20.15
38616;BME280;24370;51.986;4.666;2023-07-02T09:30:25;101128.47;;;31.38;21.13
38616;BME280;24370;51.986;4.666;2023-07-02T09:32:50;101120.34;;;31.48;22.03
38616;BME280;24370;51.986;4.666;2023-07-02T09:35:16;101124.44;;;30.54;23.32
38616;BME280;24370;51.986;4.666;2023-07-02T09:37:43;101120.09;;;31.32;22.71
38616;BME280;24370;51.986;4.666;2023-07-02T09:40:09;101124.91;;;30.89;23.10
38616;BME280;24370;51.986;4.666;2023-07-02T09:42:35;101125.13;;;31.54;21.23
38616;BME280;24370;51.986;4.666;2023-07-02T09:45:02;101118.28;;;31.79;21.60
38616;BME280;24370;51.986;4.666;2023-07-02T09:47:29;101117.03;;;31.74;21.85
38616;BME280;24370;51.986;4.666;2023-07-02T09:49:55;101123.00;;;30.09;22.48
38616;BME280;24370;51.986;4.666;2023-07-02T09:52:21;101119.66;;;30.27;22.50
38616;BME280;24370;51.986;4.666;2023-07-02T09:54:46;101116.19;;;32.01;21.71
38616;BME280;24370;51.986;4.666;2023-07-02T09:57:12;101120.22;;;31.87;20.09
38616;BME280;24370;51.986;4.666;2023-07-02T09:59:39;101133.19;;;32.49;20.54
38616;BME280;24370;51.986;4.666;2023-07-02T10:02:05;101130.00;;;30.82;21.16
38616;BME280;24370;51.986;4.666;2023-07-02T10:04:41;101132.56;;;30.93;21.89
38616;BME280;24370;51.986;4.666;2023-07-02T10:07:07;101135.56;;;30.40;21.70
38616;BME280;24370;51.986;4.666;2023-07-02T10:09:45;101125.50;;;31.12;21.01
38616;BME280;24370;51.986;4.666;2023-07-02T10:12:18;101134.06;;;29.85;21.79
38616;BME280;24370;51.986;4.666;2023-07-02T10:14:45;101143.09;;;29.21;23.10
38616;BME280;24370;51.986;4.666;2023-07-02T10:17:11;101146.75;;;30.86;21.89
38616;BME280;24370;51.986;4.666;2023-07-02T10:19:55;101135.84;;;29.75;22.12
38616;BME280;24370;51.986;4.666;2023-07-02T10:22:20;101142.09;;;29.97;22.42
38616;BME280;24370;51.986;4.666;2023-07-02T10:24:54;101131.19;;;29.98;21.85
38616;BME280;24370;51.986;4.666;2023-07-02T10:27:20;101145.13;;;28.64;22.58
38616;BME280;24370;51.986;4.666;2023-07-02T10:29:49;101146.25;;;28.16;23.54
38616;BME280;24370;51.986;4.666;2023-07-02T10:32:26;101144.78;;;29.01;22.30
38616;BME280;24370;51.986;4.666;2023-07-02T10:34:52;101149.78;;;29.80;21.78
38616;BME280;24370;51.986;4.666;2023-07-02T10:37:17;101149.06;;;31.29;20.63
38616;BME280;24370;51.986;4.666;2023-07-02T10:39:42;101143.88;;;29.44;22.76
38616;BME280;24370;51.986;4.666;2023-07-02T10:42:09;101142.56;;;29.06;22.67
38616;BME280;24370;51.986;4.666;2023-07-02T10:44:50;101149.94;;;30.09;21.72
38616;BME280;24370;51.986;4.666;2023-07-02T10:47:15;101145.06;;;30.75;20.81
38616;BME280;24370;51.986;4.666;2023-07-02T10:49:41;101151.28;;;29.19;21.47
38616;BME280;24370;51.986;4.666;2023-07-02T10:52:07;101152.28;;;29.30;21.45
38616;BME280;24370;51.986;4.666;2023-07-02T10:54:46;101153.72;;;28.23;23.21
38616;BME280;24370;51.986;4.666;2023-07-02T10:57:17;101151.16;;;28.33;24.32
38616;BME280;24370;51.986;4.666;2023-07-02T10:59:45;101158.84;;;28.26;23.20
38616;BME280;24370;51.986;4.666;2023-07-02T11:02:11;101153.13;;;29.30;22.69
38616;BME280;24370;51.986;4.666;2023-07-02T11:04:37;101159.56;;;28.17;25.14
38616;BME280;24370;51.986;4.666;2023-07-02T11:07:03;101160.06;;;28.34;24.95
38616;BME280;24370;51.986;4.666;2023-07-02T11:09:29;101149.78;;;29.38;23.85
38616;BME280;24370;51.986;4.666;2023-07-02T11:11:57;101154.16;;;30.93;22.53
38616;BME280;24370;51.986;4.666;2023-07-02T11:14:34;101165.53;;;31.26;20.55
38616;BME280;24370;51.986;4.666;2023-07-02T11:17:03;101160.06;;;29.54;21.38
38616;BME280;24370;51.986;4.666;2023-07-02T11:19:31;101166.41;;;30.16;20.96
38616;BME280;24370;51.986;4.666;2023-07-02T11:21:58;101154.91;;;28.08;23.57
38616;BME280;24370;51.986;4.666;2023-07-02T11:26:53;101164.72;;;31.16;20.93
38616;BME280;24370;51.986;4.666;2023-07-02T11:29:18;101170.00;;;30.26;20.01
38616;BME280;24370;51.986;4.666;2023-07-02T11:31:44;101162.91;;;28.87;21.45
38616;BME280;24370;51.986;4.666;2023-07-02T11:34:14;101158.16;;;30.08;20.42
38616;BME280;24370;51.986;4.666;2023-07-02T11:36:39;101166.97;;;29.25;21.48
38616;BME280;24370;51.986;4.666;2023-07-02T11:39:05;101162.31;;;29.16;21.41
38616;BME280;24370;51.986;4.666;2023-07-02T11:41:39;101168.34;;;29.83;21.37
38616;BME280;24370;51.986;4.666;2023-07-02T11:44:04;101156.72;;;30.04;21.15
38616;BME280;24370;51.986;4.666;2023-07-02T11:46:30;101170.53;;;28.37;21.51
38616;BME280;24370;51.986;4.666;2023-07-02T11:48:55;101162.78;;;29.75;22.09
38616;BME280;24370;51.986;4.666;2023-07-02T11:51:21;101179.09;;;28.53;23.23
38616;BME280;24370;51.986;4.666;2023-07-02T11:53:46;101165.41;;;29.44;22.97
38616;BME280;24370;51.986;4.666;2023-07-02T11:56:12;101170.13;;;29.73;22.26
38616;BME280;24370;51.986;4.666;2023-07-02T11:58:41;101165.06;;;29.37;22.66
38616;BME280;24370;51.986;4.666;2023-07-02T12:01:07;101167.19;;;29.34;22.85
38616;BME280;24370;51.986;4.666;2023-07-02T12:03:32;101164.38;;;28.91;21.55
38616;BME280;24370;51.986;4.666;2023-07-02T12:05:58;101173.69;;;28.87;23.05
38616;BME280;24370;51.986;4.666;2023-07-02T12:08:23;101186.50;;;28.95;23.52
38616;BME280;24370;51.986;4.666;2023-07-02T12:10:49;101176.16;;;31.77;22.00
38616;BME280;24370;51.986;4.666;2023-07-02T12:13:14;101187.88;;;29.54;22.62
38616;BME280;24370;51.986;4.666;2023-07-02T12:15:40;101184.97;;;28.70;22.08
38616;BME280;24370;51.986;4.666;2023-07-02T12:18:05;101182.09;;;29.80;21.98
38616;BME280;24370;51.986;4.666;2023-07-02T12:20:31;101187.41;;;28.73;21.41
38616;BME280;24370;51.986;4.666;2023-07-02T12:22:56;101202.50;;;29.83;21.80
38616;BME280;24370;51.986;4.666;2023-07-02T12:25:22;101200.53;;;29.10;23.08
38616;BME280;24370;51.986;4.666;2023-07-02T12:27:48;101198.31;;;27.79;24.30
38616;BME280;24370;51.986;4.666;2023-07-02T12:30:13;101200.84;;;28.16;24.47
38616;BME280;24370;51.986;4.666;2023-07-02T12:32:43;101197.56;;;29.24;24.13
38616;BME280;24370;51.986;4.666;2023-07-02T12:35:09;101195.75;;;28.36;24.16
38616;BME280;24370;51.986;4.666;2023-07-02T12:37:35;101187.34;;;29.60;23.80
38616;BME280;24370;51.986;4.666;2023-07-02T12:40:00;101195.84;;;28.46;24.54
38616;BME280;24370;51.986;4.666;2023-07-02T12:42:26;101199.28;;;29.25;22.86
38616;BME280;24370;51.986;4.666;2023-07-02T12:44:51;101193.69;;;29.06;23.10
38616;BME280;24370;51.986;4.666;2023-07-02T12:47:17;101194.03;;;28.35;23.93
38616;BME280;24370;51.986;4.666;2023-07-02T12:49:43;101186.28;;;29.31;22.99